WEATHER DATA

TODAY
Time Temp. Dewp. Hum. Wind dir Wind speed Wind gust Bar. 1h Prec. 24h Prec.
00:04 15.9 7.1 56 0 0.6 1024.4 0.0000 0.0000
00:13 15.7 7 56 0 0.6 1024.4 0.0000 0.0000
00:32 15.5 6.8 56 0 0.6 1024.4 0.0000 0.0000
00:43 15.4 6.7 56 0 0.3 1024.4 0.0000 0.0000
00:53 15.3 6.8 57 0 0.6 1024.5 0.0000 0.0000
01:03 15.2 6.7 57 270 0.3 0.6 1024.4 0.0000 0.0000
01:13 15 6.6 57 270 0.3 0.6 1024.4 0.0000 0.0000
01:23 14.8 6.4 57 270 0.3 0.6 1024.4 0.0000 0.0000
01:33 14.7 6.3 57 0 0.3 1024.4 0.0000 0.0000
01:43 14.6 6.2 57 0 0.3 1024.3 0.0000 0.0000
01:54 14.5 6.3 58 0 0.3 1024.3 0.0000 0.0000
02:03 14.4 6.3 58 0 0.6 1024.2 0.0000 0.0000
02:13 14.3 6.2 58 0 0.6 1024.2 0.0000 0.0000
02:24 14.2 6.1 58 0 0.6 1024.2 0.0000 0.0000
02:34 14.1 6 58 0 0.6 1024.1 0.0000 0.0000
02:43 14.1 6 58 0 0.6 1024.1 0.0000 0.0000
02:53 14 6.1 59 0 0.6 1024.1 0.0000 0.0000
03:04 13.9 6 59 270 0.3 0.6 1024 0.0000 0.0000
03:14 13.8 5.9 59 0 0.6 1024 0.0000 0.0000
03:24 13.6 5.7 59 0 0.6 1024.1 0.0000 0.0000
03:34 13.5 5.7 59 0 0.6 1024 0.0000 0.0000
03:44 13.4 5.6 59 0 0.3 1024 0.0000 0.0000
03:54 13.3 5.5 59 0 0.6 1024 0.0000 0.0000
04:04 13.2 5.6 60 270 0.3 0.6 1023.9 0.0000 0.0000
04:15 13.1 5.5 60 0 0.6 1023.8 0.0000 0.0000
04:24 13 5.4 60 0 0.6 1023.9 0.0000 0.0000
04:34 13 5.4 60 0 0.6 1023.8 0.0000 0.0000
04:44 12.8 5.2 60 0 0.6 1023.8 0.0000 0.0000
04:55 12.7 5.1 60 270 0.3 0.6 1023.8 0.0000 0.0000
05:05 12.7 5.1 60 270 0.3 0.8 1023.7 0.0000 0.0000
05:14 12.6 5 60 270 0.3 0.8 1023.7 0.0000 0.0000
05:25 12.5 5 60 321 0.3 0.8 1023.6 0.0000 0.0000
05:35 12.5 5.2 61 311 0.3 0.6 1023.6 0.0000 0.0000
05:45 12.5 5.2 61 270 0.3 0.8 1023.6 0.0000 0.0000
05:55 12.5 5.2 61 270 0.3 0.8 1023.6 0.0000 0.0000
06:05 12.6 5.3 61 270 0.6 1.1 1023.5 0.0000 0.0000
06:15 12.7 5.4 61 270 0.3 0.8 1023.6 0.0000 0.0000
06:25 12.8 5.5 61 270 0.3 0.8 1023.5 0.0000 0.0000
06:36 13.1 5.8 61 270 0.3 0.8 1023.6 0.0000 0.0000
06:46 13.6 6.5 62 270 0.3 1.1 1023.6 0.0000 0.0000
06:55 14.4 7.2 62 270 0.3 0.8 1023.5 0.0000 0.0000
07:05 15.1 7.9 62 270 0.3 0.8 1023.6 0.0000 0.0000
07:16 16 9 63 270 0.3 0.6 1023.6 0.0000 0.0000
07:26 16.4 9.1 62 351 0.6 1.1 1023.6 0.0000 0.0000
07:36 17 9.7 62 350 0.8 1.7 1023.7 0.0000 0.0000
07:46 17.4 10.1 62 31 0.6 1.1 1023.6 0.0000 0.0000
07:56 18.1 10.7 62 23 0.3 0.6 1023.6 0.0000 0.0000
08:06 18.7 11 61 0 0.3 0.8 1023.5 0.0000 0.0000
08:16 19.4 11.7 61 245 0.6 1.1 1023.5 0.0000 0.0000
13:01 25.1 15.1 54 255 0.8 2.5 1021.6 0.0000 0.0000
13:11 25.7 15.7 54 259 2.8 6.4 1021.5 0.0000 0.0000
13:21 25.9 15.9 54 273 2.8 6.9 1021.4 0.0000 0.0000
13:31 26 15.7 53 270 1.1 3.1 1021.2 0.0000 0.0000
13:42 25.8 15.2 52 270 0.8 2.5 1021.1 0.0000 0.0000
13:51 25.6 15 52 284 0.8 3.3 1021 0.0000 0.0000
14:01 25 14.2 51 29 0.6 1.9 1021 0.0000 0.0000
14:12 25 14.2 51 229 0.3 1.1 1020.9 0.0000 0.0000
14:21 25.3 14.4 51 244 0.8 2.2 1020.8 0.0000 0.0000
14:32 25.4 14.5 51 236 0.6 1.7 1020.6 0.0000 0.0000
14:42 25.6 14.7 51 270 1.9 4.4 1020.5 0.0000 0.0000
14:52 25.6 14.4 50 270 1.1 3.6 1020.5 0.0000 0.0000
15:02 25.4 14.2 50 345 1.7 3.1 1020.3 0.0000 0.0000
15:12 25.3 14.1 50 246 0.6 1.1 1020.3 0.0000 0.0000
15:23 25.3 14.1 50 270 0.8 2.2 1020.2 0.0000 0.0000
15:32 25.2 13.7 49 335 0.8 3.1 1020.1 0.0000 0.0000
15:42 25 13.6 49 303 0.8 2.8 1020 0.0000 0.0000
15:53 24.7 13.3 49 330 0.8 2.2 1019.9 0.0000 0.0000
16:03 24.4 13 49 320 0.6 2.2 1019.8 0.0000 0.0000
16:13 24.2 12.5 48 315 0.6 1.9 1019.6 0.0000 0.0000
16:22 24.2 12.8 49 270 0.3 1.7 1019.5 0.0000 0.0000
16:33 24.2 12.8 49 293 0.6 1.9 1019.4 0.0000 0.0000
16:43 24.2 12.8 49 270 0.3 0.8 1019.3 0.0000 0.0000
16:53 24.1 12.4 48 127 0.6 1.7 1019.1 0.0000 0.0000
17:03 24.1 12.4 48 347 1.1 2.8 1019 0.0000 0.0000
17:13 24.2 12.5 48 330 1.1 2.8 1018.9 0.0000 0.0000
17:23 24.1 12.4 48 331 0.8 2.8 1018.9 0.0000 0.0000
17:33 23.9 12.2 48 11 0.8 2.5 1018.7 0.0000 0.0000
17:44 23.8 12.1 48 346 1.1 2.5 1018.6 0.0000 0.0000
17:54 23.7 12.1 48 10 1.1 2.8 1018.4 0.0000 0.0000
18:03 23.6 12 48 293 0.6 1.1 1018.4 0.0000 0.0000
18:14 23.5 11.9 48 289 0.6 1.7 1018.2 0.0000 0.0000
18:24 23.3 11.7 48 270 0.3 1.1 1018.2 0.0000 0.0000
18:34 23.3 11.7 48 345 0.3 0.8 1018.1 0.0000 0.0000
18:44 23.3 11.7 48 23 0.8 1.9 1018 0.0000 0.0000
18:54 23.2 11.6 48 20 1.1 2.5 1017.9 0.0000 0.0000
19:04 23.1 11.5 48 7 1.1 2.8 1017.9 0.0000 0.0000
19:14 23.1 11.5 48 13 1.7 2.2 1017.8 0.0000 0.0000
19:24 23 11.4 48 23 1.1 1.9 1017.7 0.0000 0.0000
19:35 22.9 11.3 48 16 1.9 2.5 1017.7 0.0000 0.0000
19:44 22.9 11.3 48 14 0.8 2.2 1017.6 0.0000 0.0000
19:54 22.8 11.2 48 317 0.8 1.7 1017.5 0.0000 0.0000
20:05 22.7 11.1 48 329 0.6 1.7 1017.5 0.0000 0.0000
20:15 22.6 11 48 341 0.6 1.1 1017.5 0.0000 0.0000
20:25 22.5 11 48 322 0.6 1.1 1017.4 0.0000 0.0000
20:34 22.4 10.9 48 315 0.3 0.8 1017.4 0.0000 0.0000

DAY STATISTIC

2020-07-13
TEMPERATURE
AVERAGE
19.1
HIGH
26.0
13:31
LOW
12.5
05:25
PRESSURE
AVERAGE
1021.7
HIGH
1024.5
00:53
LOW
1017.4
20:25
DEWPOINT
AVERAGE
9.6
HIGH
15.9
13:21
LOW
5.0
05:14
HUMIDITY
AVERAGE
55
HIGH
63
07:16
LOW
48
16:13
WIND SPEED
AVERAGE
0.5
HIGH
2.8
13:11
WIND GUST
AVERAGE
1.5
HIGH
6.9
13:21
WIND DIRECTION
PREVAILING
W
32.6%
N
15.8
NE
5.3
E
0.0
SE
1.1
S
0.0
SW
5.3
W
32.6
NW
15.8
PRECIPITATION
RAIN HOUR
0.0
RAIN DAY
0.0
TEMPERATURE (°C)
LOW
12.5
HIGH
26.0
AVERAGE
19.1
PRESSURE (hpa)
LOW
1017.4
HIGH
1024.5
AVERAGE
1021.7
DEVICE